createdAt,value
2019-02-24T00:00:38.961Z,102295.13
2019-02-24T00:01:19.353Z,102294.12
2019-02-24T00:01:55.036Z,102299.33
2019-02-24T00:02:30.427Z,102295.19
2019-02-24T00:03:05.841Z,102297.29
2019-02-24T00:03:41.524Z,102295.49
2019-02-24T00:04:17.173Z,102298.51
2019-02-24T00:04:52.955Z,102290.33
2019-02-24T00:05:28.450Z,102294.63
2019-02-24T00:06:03.860Z,102296.72
2019-02-24T00:06:39.296Z,102294.12
2019-02-24T00:07:15.207Z,102288.94
2019-02-24T00:07:51.112Z,102289.81
2019-02-24T00:08:26.498Z,102288.94
2019-02-24T00:09:02.486Z,102282.91
2019-02-24T00:09:38.163Z,102287.66
2019-02-24T00:10:13.586Z,102282.00
2019-02-24T00:10:49.264Z,102286.75
2019-02-24T00:11:24.941Z,102282.87
2019-02-24T00:12:00.345Z,102287.57
2019-02-24T00:12:35.720Z,102294.37
2019-02-24T00:13:11.783Z,102290.02
2019-02-24T00:13:47.184Z,102287.77
2019-02-24T00:14:22.584Z,102285.52
2019-02-24T00:14:58.249Z,102285.21
2019-02-24T00:15:33.642Z,102291.30
2019-02-24T00:16:09.089Z,102281.73
2019-02-24T00:16:44.595Z,102285.05
2019-02-24T00:17:20.228Z,102283.20
2019-02-24T00:17:55.687Z,102284.55
2019-02-24T00:18:31.084Z,102284.43
2019-02-24T00:19:06.878Z,102282.69
2019-02-24T00:19:42.277Z,102281.70
2019-02-24T00:20:17.700Z,102274.00
2019-02-24T00:20:53.349Z,102282.58
2019-02-24T00:21:29.040Z,102285.20
2019-02-24T00:22:04.737Z,102277.58
2019-02-24T00:22:40.368Z,102280.14
2019-02-24T00:23:15.750Z,102278.35
2019-02-24T00:23:51.147Z,102283.16
2019-02-24T00:24:26.800Z,102279.68
2019-02-24T00:25:02.210Z,102281.05
2019-02-24T00:25:37.892Z,102280.64
2019-02-24T00:26:13.609Z,102276.77
2019-02-24T00:26:49.065Z,102284.89
2019-02-24T00:27:24.476Z,102285.70
2019-02-24T00:28:06.958Z,102282.28
2019-02-24T00:28:37.526Z,102285.77
2019-02-24T00:29:13.210Z,102283.46
2019-02-24T00:29:48.992Z,102283.05
2019-02-24T00:30:24.394Z,102279.22
2019-02-24T00:31:00.066Z,102282.94
2019-02-24T00:31:35.724Z,102275.63
2019-02-24T00:32:11.439Z,102277.27
2019-02-24T00:32:47.101Z,102281.50
2019-02-24T00:33:22.513Z,102274.14
2019-02-24T00:33:58.150Z,102269.12
2019-02-24T00:34:33.610Z,102278.95
2019-02-24T00:35:09.001Z,102275.56
2019-02-24T00:35:44.394Z,102275.52
2019-02-24T00:36:20.032Z,102275.52
2019-02-24T00:36:55.728Z,102279.34
2019-02-24T00:37:31.134Z,102272.76
2019-02-24T00:38:06.780Z,102274.09
2019-02-24T00:38:42.450Z,102273.46
2019-02-24T00:39:17.828Z,102271.70
2019-02-24T00:39:53.228Z,102273.46
2019-02-24T00:40:28.886Z,102270.85
2019-02-24T00:41:04.297Z,102271.31
2019-02-24T00:41:40.033Z,102269.97
2019-02-24T00:42:15.450Z,102274.33
2019-02-24T00:42:50.831Z,102272.12
2019-02-24T00:43:26.223Z,102269.05
2019-02-24T00:44:01.878Z,102271.14
2019-02-24T00:44:37.294Z,102267.31
2019-02-24T00:45:12.674Z,102272.83
2019-02-24T00:45:48.056Z,102264.23
2019-02-24T00:46:23.982Z,102265.11
2019-02-24T00:46:59.698Z,102267.67
2019-02-24T00:47:35.371Z,102262.16
2019-02-24T00:48:10.749Z,102263.58
2019-02-24T00:48:46.720Z,102263.02
2019-02-24T00:49:22.133Z,102263.94
2019-02-24T00:49:57.530Z,102264.98
2019-02-24T00:50:33.015Z,102264.76
2019-02-24T00:51:08.450Z,102261.39
2019-02-24T00:51:43.933Z,102262.16
2019-02-24T00:52:19.332Z,102259.12
2019-02-24T00:52:55.546Z,102260.60
2019-02-24T00:53:30.923Z,102264.13
2019-02-24T00:54:06.336Z,102264.13
2019-02-24T00:54:41.980Z,102265.81
2019-02-24T00:55:17.396Z,102264.53
2019-02-24T00:55:52.794Z,102259.89
2019-02-24T00:56:28.430Z,102263.31
2019-02-24T00:57:03.928Z,102265.86
2019-02-24T00:57:39.328Z,102264.99
2019-02-24T00:58:16.432Z,102258.20
2019-02-24T00:58:52.200Z,102261.93
2019-02-24T00:59:27.610Z,102258.92
2019-02-24T01:00:03.292Z,102261.88
2019-02-24T01:00:38.699Z,102256.30
2019-02-24T01:01:14.651Z,102263.14
2019-02-24T01:01:50.573Z,102263.34
2019-02-24T01:02:26.532Z,102260.43
2019-02-24T01:03:01.919Z,102263.32
2019-02-24T01:03:37.582Z,102268.32
2019-02-24T01:04:12.972Z,102264.03
2019-02-24T01:04:48.693Z,102263.34
2019-02-24T01:05:24.390Z,102264.61
2019-02-24T01:06:00.089Z,102265.01
2019-02-24T01:06:35.492Z,102261.70
2019-02-24T01:07:11.231Z,102263.50
2019-02-24T01:07:46.621Z,102257.41
2019-02-24T01:08:22.026Z,102267.43
2019-02-24T01:08:57.419Z,102265.18
2019-02-24T01:09:33.066Z,102270.29
2019-02-24T01:10:08.866Z,102265.18
2019-02-24T01:10:44.252Z,102265.13
2019-02-24T01:11:19.963Z,102260.20
2019-02-24T01:11:55.382Z,102265.41
2019-02-24T01:12:30.786Z,102268.04
2019-02-24T01:13:06.210Z,102265.77
2019-02-24T01:13:42.168Z,102267.81
2019-02-24T01:14:17.836Z,102272.89
2019-02-24T01:14:53.216Z,102272.97
2019-02-24T01:15:29.170Z,102268.91
2019-02-24T01:16:04.581Z,102270.64
2019-02-24T01:16:40.243Z,102269.24
2019-02-24T01:17:15.644Z,102263.27
2019-02-24T01:17:51.308Z,102267.17
2019-02-24T01:18:26.726Z,102273.61
2019-02-24T01:19:02.113Z,102270.41
2019-02-24T01:19:37.781Z,102267.58
2019-02-24T01:20:13.439Z,102266.12
2019-02-24T01:20:49.290Z,102265.44
2019-02-24T01:21:24.918Z,102268.73
2019-02-24T01:22:00.809Z,102278.99
2019-02-24T01:22:36.225Z,102279.47
2019-02-24T01:23:11.625Z,102277.95
2019-02-24T01:23:47.007Z,102271.11
2019-02-24T01:24:22.653Z,102270.77
2019-02-24T01:24:58.320Z,102269.06
2019-02-24T01:25:34.011Z,102269.19
2019-02-24T01:26:09.417Z,102276.73
2019-02-24T01:26:44.814Z,102264.27
2019-02-24T01:27:20.234Z,102267.41
2019-02-24T01:27:55.919Z,102273.30
2019-02-24T01:28:31.568Z,102271.97
2019-02-24T01:29:07.304Z,102275.86
2019-02-24T01:29:42.683Z,102269.65
2019-02-24T01:30:18.064Z,102271.87
2019-02-24T01:30:53.452Z,102272.38
2019-02-24T01:31:29.147Z,102275.45
2019-02-24T01:32:04.549Z,102273.08
2019-02-24T01:32:40.529Z,102266.33
2019-02-24T01:33:15.998Z,102267.22
2019-02-24T01:33:51.625Z,102267.50
2019-02-24T01:34:27.016Z,102271.92
2019-02-24T01:35:02.415Z,102271.16
2019-02-24T01:35:37.849Z,102264.14
2019-02-24T01:36:13.252Z,102269.24
2019-02-24T01:36:48.647Z,102266.94
2019-02-24T01:37:24.607Z,102271.62
2019-02-24T01:38:00.288Z,102275.34
2019-02-24T01:38:35.928Z,102272.05
2019-02-24T01:39:11.564Z,102271.52
2019-02-24T01:39:46.987Z,102268.66
2019-02-24T01:40:22.645Z,102265.48
2019-02-24T01:40:58.033Z,102267.22
2019-02-24T01:41:33.685Z,102268.22
2019-02-24T01:42:09.537Z,102260.84
2019-02-24T01:42:45.488Z,102262.58
2019-02-24T01:43:20.868Z,102266.05
2019-02-24T01:43:56.604Z,102260.84
2019-02-24T01:44:32.305Z,102259.56
2019-02-24T01:45:07.980Z,102256.73
2019-02-24T01:45:43.363Z,102261.02
2019-02-24T01:46:18.845Z,102263.75
2019-02-24T01:46:54.490Z,102262.47
2019-02-24T01:47:30.161Z,102263.80
2019-02-24T01:48:05.540Z,102267.50
2019-02-24T01:48:41.015Z,102262.75
2019-02-24T01:49:16.663Z,102270.77
2019-02-24T01:49:52.028Z,102263.57
2019-02-24T01:50:27.429Z,102264.16
2019-02-24T01:51:03.131Z,102263.50
2019-02-24T01:51:38.897Z,102268.61
2019-02-24T01:52:14.520Z,102265.66
2019-02-24T01:52:50.231Z,102264.37
2019-02-24T01:53:25.886Z,102262.69
2019-02-24T01:54:01.603Z,102258.98
2019-02-24T01:54:37.070Z,102264.14
2019-02-24T01:55:12.496Z,102263.22
2019-02-24T01:55:47.883Z,102262.30
2019-02-24T01:56:23.849Z,102261.94
2019-02-24T01:56:59.251Z,102263.98
2019-02-24T01:57:34.670Z,102257.59
2019-02-24T01:58:10.069Z,102254.38
2019-02-24T01:58:45.450Z,102254.64
2019-02-24T01:59:20.816Z,102262.30
2019-02-24T01:59:56.197Z,102258.92
2019-02-24T02:00:31.578Z,102256.73
2019-02-24T02:01:07.537Z,102254.00
2019-02-24T02:01:42.929Z,102254.62
2019-02-24T02:02:18.637Z,102258.56
2019-02-24T02:02:54.044Z,102251.91
2019-02-24T02:03:29.714Z,102259.67
2019-02-24T02:04:05.119Z,102255.33
2019-02-24T02:04:40.801Z,102253.11
2019-02-24T02:05:16.491Z,102262.53
2019-02-24T02:05:52.136Z,102257.37
2019-02-24T02:06:27.804Z,102256.08
2019-02-24T02:07:03.194Z,102250.50
2019-02-24T02:07:38.866Z,102259.92
2019-02-24T02:08:14.596Z,102257.30
2019-02-24T02:08:49.997Z,102257.77
2019-02-24T02:09:25.386Z,102248.36
2019-02-24T02:10:00.884Z,102256.48
2019-02-24T02:10:36.277Z,102254.39
2019-02-24T02:11:11.740Z,102254.41
2019-02-24T02:11:47.364Z,102253.52
2019-02-24T02:12:23.273Z,102255.22
2019-02-24T02:12:58.695Z,102257.83
2019-02-24T02:13:34.089Z,102255.33
2019-02-24T02:14:09.757Z,102246.63
2019-02-24T02:14:45.429Z,102251.73
2019-02-24T02:15:21.218Z,102245.24
2019-02-24T02:15:57.028Z,102251.27
2019-02-24T02:16:32.678Z,102246.47
2019-02-24T02:17:08.324Z,102249.94
2019-02-24T02:17:43.832Z,102253.64
2019-02-24T02:18:19.563Z,102243.37
2019-02-24T02:18:55.258Z,102257.36
2019-02-24T02:19:30.755Z,102255.09
2019-02-24T02:20:06.710Z,102241.98
2019-02-24T02:20:42.377Z,102245.81
2019-02-24T02:21:18.832Z,102246.22
2019-02-24T02:21:54.453Z,102244.78
2019-02-24T02:22:30.210Z,102250.98
2019-02-24T02:23:06.213Z,102259.45
2019-02-24T02:23:42.133Z,102248.30
2019-02-24T02:24:17.791Z,102250.22
2019-02-24T02:24:53.174Z,102256.02
2019-02-24T02:25:29.340Z,102254.52
2019-02-24T02:26:04.987Z,102254.52
2019-02-24T02:26:40.408Z,102258.00
2019-02-24T02:27:15.805Z,102257.07
2019-02-24T02:27:51.215Z,102259.67
2019-02-24T02:28:26.857Z,102252.36
2019-02-24T02:29:02.487Z,102250.27
2019-02-24T02:29:37.910Z,102255.09
2019-02-24T02:30:15.163Z,102255.09
2019-02-24T02:30:50.824Z,102257.72
2019-02-24T02:31:26.545Z,102248.38
2019-02-24T02:32:01.951Z,102249.70
2019-02-24T02:32:37.361Z,102251.31
2019-02-24T02:33:12.825Z,102256.02
2019-02-24T02:33:48.201Z,102251.31
2019-02-24T02:34:24.132Z,102252.95
2019-02-24T02:34:59.520Z,102254.76
2019-02-24T02:35:34.902Z,102246.21
2019-02-24T02:36:11.305Z,102255.09
2019-02-24T02:36:46.951Z,102255.91
2019-02-24T02:37:22.659Z,102257.92
2019-02-24T02:37:58.344Z,102256.81
2019-02-24T02:38:33.722Z,102254.50
2019-02-24T02:39:09.414Z,102253.80
2019-02-24T02:39:44.804Z,102250.16
2019-02-24T02:40:20.481Z,102249.75
2019-02-24T02:40:55.872Z,102251.78
2019-02-24T02:41:31.300Z,102252.58
2019-02-24T02:42:06.794Z,102253.47
2019-02-24T02:42:42.201Z,102249.59
2019-02-24T02:43:17.642Z,102247.02
2019-02-24T02:43:53.029Z,102244.48
2019-02-24T02:44:28.400Z,102250.84
2019-02-24T02:45:03.819Z,102251.73
2019-02-24T02:45:39.550Z,102243.65
2019-02-24T02:46:15.211Z,102248.53
2019-02-24T02:46:50.619Z,102249.39
2019-02-24T02:47:26.023Z,102256.84
2019-02-24T02:48:02.170Z,102252.59
2019-02-24T02:48:37.623Z,102245.23
2019-02-24T02:49:13.275Z,102246.69
2019-02-24T02:49:49.252Z,102252.81
2019-02-24T02:50:25.200Z,102253.11
2019-02-24T02:51:00.607Z,102250.86
2019-02-24T02:51:36.295Z,102246.50
2019-02-24T02:52:11.699Z,102247.83
2019-02-24T02:52:47.472Z,102243.48
2019-02-24T02:53:22.881Z,102248.29
2019-02-24T02:53:58.558Z,102251.60
2019-02-24T02:54:33.970Z,102247.72
2019-02-24T02:55:09.763Z,102250.22
2019-02-24T02:55:45.164Z,102247.20
2019-02-24T02:56:20.606Z,102250.37
2019-02-24T02:56:56.017Z,102250.78
2019-02-24T02:57:31.440Z,102250.84
2019-02-24T02:58:06.918Z,102245.73
2019-02-24T02:58:42.523Z,102254.28
2019-02-24T02:59:17.930Z,102249.70
2019-02-24T02:59:53.939Z,102247.61
2019-02-24T03:00:33.638Z,102251.44
2019-02-24T03:01:09.063Z,102245.52
2019-02-24T03:01:44.729Z,102248.88
2019-02-24T03:02:24.493Z,102243.20
2019-02-24T03:02:57.217Z,102245.59
2019-02-24T03:03:32.942Z,102242.09
2019-02-24T03:04:08.764Z,102238.98
2019-02-24T03:04:44.457Z,102239.44
2019-02-24T03:05:20.136Z,102238.11
2019-02-24T03:06:10.933Z,102237.52
2019-02-24T03:07:04.039Z,102238.79
2019-02-24T03:07:46.407Z,102240.42
2019-02-24T03:08:23.477Z,102236.11
2019-02-24T03:08:58.869Z,102239.13
2019-02-24T03:09:34.280Z,102234.78
2019-02-24T03:10:09.806Z,102237.00
2019-02-24T03:10:45.193Z,102233.04
2019-02-24T03:11:20.575Z,102238.20
2019-02-24T03:11:55.966Z,102226.15
2019-02-24T03:12:31.371Z,102230.30
2019-02-24T03:13:07.105Z,102236.35
2019-02-24T03:13:42.520Z,102232.93
2019-02-24T03:14:18.180Z,102237.92
2019-02-24T03:14:53.607Z,102229.80
2019-02-24T03:15:29.572Z,102240.34
2019-02-24T03:16:05.021Z,102235.59
2019-02-24T03:16:40.448Z,102232.85
2019-02-24T03:17:15.873Z,102234.53
2019-02-24T03:17:51.853Z,102234.83
2019-02-24T03:18:27.298Z,102230.44
2019-02-24T03:19:02.940Z,102225.50
2019-02-24T03:19:38.412Z,102236.98
2019-02-24T03:20:14.106Z,102230.55
2019-02-24T03:20:49.771Z,102231.23
2019-02-24T03:21:25.171Z,102230.03
2019-02-24T03:22:00.605Z,102233.09
2019-02-24T03:22:36.084Z,102234.02
2019-02-24T03:23:11.849Z,102231.77
2019-02-24T03:23:47.541Z,102229.63
2019-02-24T03:24:22.937Z,102231.88
2019-02-24T03:24:59.455Z,102228.70
2019-02-24T03:25:35.232Z,102229.08
2019-02-24T03:26:10.825Z,102230.55
2019-02-24T03:26:46.238Z,102231.82
2019-02-24T03:27:21.616Z,102227.72
2019-02-24T03:27:57.108Z,102230.19
2019-02-24T03:28:32.525Z,102223.70
2019-02-24T03:29:08.268Z,102233.55
2019-02-24T03:29:44.211Z,102230.14
2019-02-24T03:30:19.625Z,102228.05
2019-02-24T03:30:55.010Z,102229.73
2019-02-24T03:31:30.697Z,102231.06
2019-02-24T03:32:06.135Z,102225.16
2019-02-24T03:32:41.584Z,102230.67
2019-02-24T03:33:16.986Z,102222.95
2019-02-24T03:33:52.689Z,102228.18
2019-02-24T03:34:28.333Z,102223.94
2019-02-24T03:35:04.377Z,102223.84
2019-02-24T03:35:39.825Z,102227.99
2019-02-24T03:36:15.222Z,102223.77
2019-02-24T03:36:50.619Z,102226.25
2019-02-24T03:37:26.285Z,102229.63
2019-02-24T03:38:01.949Z,102226.61
2019-02-24T03:38:38.422Z,102231.82
2019-02-24T03:39:14.128Z,102229.55
2019-02-24T03:39:49.528Z,102231.52
2019-02-24T03:40:24.955Z,102231.30
2019-02-24T03:41:00.669Z,102233.15
2019-02-24T03:41:36.532Z,102232.58
2019-02-24T03:42:12.448Z,102228.92
2019-02-24T03:42:47.982Z,102240.78
2019-02-24T03:43:23.351Z,102235.22
2019-02-24T03:43:59.018Z,102233.02
2019-02-24T03:44:34.704Z,102232.03
2019-02-24T03:45:10.181Z,102236.67
2019-02-24T03:45:45.598Z,102234.64
2019-02-24T03:46:21.006Z,102232.44
2019-02-24T03:46:56.410Z,102237.25
2019-02-24T03:47:32.161Z,102238.12
2019-02-24T03:48:07.715Z,102243.16
2019-02-24T03:48:43.737Z,102240.47
2019-02-24T03:49:19.667Z,102233.12
2019-02-24T03:49:55.068Z,102242.64
2019-02-24T03:50:30.725Z,102242.21
2019-02-24T03:51:06.451Z,102201.56
2019-02-24T03:51:41.984Z,102238.47
2019-02-24T03:52:17.480Z,102240.66
2019-02-24T03:52:52.971Z,102242.34
2019-02-24T03:53:28.384Z,102242.41
2019-02-24T03:54:04.078Z,102244.14
2019-02-24T03:54:40.148Z,102247.50
2019-02-24T03:55:15.938Z,102238.25
2019-02-24T03:55:51.357Z,102238.30
2019-02-24T03:56:27.073Z,102236.22
2019-02-24T03:57:02.546Z,102234.13
2019-02-24T03:57:37.961Z,102235.94
2019-02-24T03:58:13.906Z,102233.39
2019-02-24T03:58:49.357Z,102235.05
2019-02-24T03:59:25.038Z,102232.91
2019-02-24T04:00:03.508Z,102232.98
2019-02-24T04:00:39.027Z,102236.52
2019-02-24T04:01:14.454Z,102232.58
2019-02-24T04:01:49.848Z,102234.91
2019-02-24T04:02:25.471Z,102227.99
2019-02-24T04:03:01.195Z,102233.50
2019-02-24T04:03:37.437Z,102229.97
2019-02-24T04:04:13.156Z,102227.07
2019-02-24T04:04:48.792Z,102228.67
2019-02-24T04:05:24.208Z,102226.42
2019-02-24T04:05:59.685Z,102230.25
2019-02-24T04:06:35.432Z,102230.58
2019-02-24T04:07:10.855Z,102236.09
2019-02-24T04:07:46.265Z,102232.69
2019-02-24T04:08:21.673Z,102235.30
2019-02-24T04:08:57.380Z,102232.66
2019-02-24T04:09:33.184Z,102231.28
2019-02-24T04:10:08.660Z,102227.75
2019-02-24T04:10:44.064Z,102229.46
2019-02-24T04:11:20.024Z,102236.65
2019-02-24T04:11:55.670Z,102233.72
2019-02-24T04:12:31.365Z,102237.05
2019-02-24T04:13:07.100Z,102234.91
2019-02-24T04:13:42.519Z,102234.05
2019-02-24T04:14:18.276Z,102228.12
2019-02-24T04:14:53.714Z,102225.00
2019-02-24T04:15:29.103Z,102232.96
2019-02-24T04:16:04.785Z,102231.55
2019-02-24T04:16:40.281Z,102226.28
2019-02-24T04:17:15.665Z,102231.33
2019-02-24T04:17:51.159Z,102236.89
2019-02-24T04:18:26.869Z,102228.34
2019-02-24T04:19:02.383Z,102234.55
2019-02-24T04:19:38.167Z,102237.91
2019-02-24T04:20:13.954Z,102240.11
2019-02-24T04:20:49.345Z,102244.34
2019-02-24T04:21:25.006Z,102237.02
2019-02-24T04:22:00.436Z,102238.58
2019-02-24T04:22:35.856Z,102238.06
2019-02-24T04:23:11.291Z,102242.41
2019-02-24T04:23:47.264Z,102235.98
2019-02-24T04:24:22.944Z,102236.50
2019-02-24T04:24:58.577Z,102235.98
2019-02-24T04:25:34.006Z,102235.38
2019-02-24T04:26:09.761Z,102238.45
2019-02-24T04:26:45.404Z,102235.38
2019-02-24T04:27:20.788Z,102233.17
2019-02-24T04:27:56.194Z,102235.26
2019-02-24T04:28:31.847Z,102238.33
2019-02-24T04:29:07.887Z,102234.05
2019-02-24T04:29:43.424Z,102234.56
2019-02-24T04:30:18.810Z,102231.36
2019-02-24T04:30:54.459Z,102231.30
2019-02-24T04:31:29.834Z,102232.63
2019-02-24T04:32:07.443Z,102231.41
2019-02-24T04:32:43.101Z,102232.88
2019-02-24T04:33:18.505Z,102232.30
2019-02-24T04:33:53.981Z,102231.49
2019-02-24T04:34:29.382Z,102239.06
2019-02-24T04:35:04.829Z,102232.16
2019-02-24T04:35:40.285Z,102229.62
2019-02-24T04:36:15.925Z,102226.55
2019-02-24T04:36:51.330Z,102229.56
2019-02-24T04:37:27.018Z,102229.21
2019-02-24T04:38:02.397Z,102227.06
2019-02-24T04:38:38.205Z,102227.36
2019-02-24T04:39:13.626Z,102227.36
2019-02-24T04:39:49.343Z,102232.38
2019-02-24T04:40:24.751Z,102232.05
2019-02-24T04:41:00.141Z,102226.63
2019-02-24T04:41:35.875Z,102230.11
2019-02-24T04:42:11.568Z,102231.38
2019-02-24T04:42:46.967Z,102222.27
2019-02-24T04:43:22.619Z,102225.36
2019-02-24T04:43:58.004Z,102219.38
2019-02-24T04:44:33.653Z,102224.47
2019-02-24T04:45:09.350Z,102224.47
2019-02-24T04:45:44.836Z,102223.73
2019-02-24T04:46:20.225Z,102221.11
2019-02-24T04:46:55.612Z,102222.78
2019-02-24T04:47:31.012Z,102222.06
2019-02-24T04:48:06.815Z,102224.72
2019-02-24T04:48:42.335Z,102220.32
2019-02-24T04:49:18.487Z,102225.73
2019-02-24T04:49:54.138Z,102221.19
2019-02-24T04:50:29.550Z,102224.14
2019-02-24T04:51:05.284Z,102218.03
2019-02-24T04:51:41.006Z,102224.87
2019-02-24T04:52:16.645Z,102216.87
2019-02-24T04:52:52.615Z,102222.38
2019-02-24T04:53:28.303Z,102214.53
2019-02-24T04:54:03.980Z,102215.14
2019-02-24T04:54:39.737Z,102219.05
2019-02-24T04:55:15.400Z,102213.81
2019-02-24T04:55:50.794Z,102209.41
2019-02-24T04:56:26.200Z,102209.78
2019-02-24T04:57:01.607Z,102216.64
2019-02-24T04:57:37.377Z,102212.83
2019-02-24T04:58:12.802Z,102212.02
2019-02-24T04:58:48.454Z,102209.06
2019-02-24T04:59:23.861Z,102207.38
2019-02-24T05:00:00.724Z,102215.61
2019-02-24T05:00:36.170Z,102215.23
2019-02-24T05:01:11.892Z,102205.82
2019-02-24T05:01:47.575Z,102210.71
2019-02-24T05:02:23.002Z,102211.98
2019-02-24T05:02:58.428Z,102205.67
2019-02-24T05:03:33.816Z,102212.47
2019-02-24T05:04:09.290Z,102205.15
2019-02-24T05:04:44.968Z,102205.41
2019-02-24T05:05:20.446Z,102209.31
2019-02-24T05:05:56.092Z,102206.35
2019-02-24T05:06:31.752Z,102208.88
2019-02-24T05:07:07.460Z,102212.84
2019-02-24T05:07:42.981Z,102214.23
2019-02-24T05:08:18.379Z,102214.92
2019-02-24T05:08:53.752Z,102214.11
2019-02-24T05:09:29.246Z,102218.54
2019-02-24T05:10:05.286Z,102212.69
2019-02-24T05:10:40.668Z,102219.92
2019-02-24T05:11:16.663Z,102212.84
2019-02-24T05:11:52.319Z,102214.00
2019-02-24T05:12:27.996Z,102209.98
2019-02-24T05:13:03.404Z,102211.58
2019-02-24T05:13:39.286Z,102217.02
2019-02-24T05:14:15.216Z,102211.46
2019-02-24T05:14:51.048Z,102216.16
2019-02-24T05:15:26.458Z,102211.81
2019-02-24T05:16:02.127Z,102216.02
2019-02-24T05:16:37.600Z,102212.08
2019-02-24T05:17:13.274Z,102211.95
2019-02-24T05:17:48.677Z,102211.75
2019-02-24T05:18:24.492Z,102208.39
2019-02-24T05:18:59.901Z,102208.52
2019-02-24T05:19:35.702Z,102207.23
2019-02-24T05:20:11.125Z,102214.09
2019-02-24T05:20:46.810Z,102214.16
2019-02-24T05:21:22.212Z,102217.52
2019-02-24T05:21:58.213Z,102209.81
2019-02-24T05:22:33.609Z,102208.80
2019-02-24T05:23:09.102Z,102212.50
2019-02-24T05:23:44.648Z,102211.20
2019-02-24T05:24:20.335Z,102208.66
2019-02-24T05:24:56.033Z,102212.08
2019-02-24T05:25:31.428Z,102202.57
2019-02-24T05:26:07.172Z,102214.22
2019-02-24T05:26:42.609Z,102213.84
2019-02-24T05:27:18.033Z,102207.79
2019-02-24T05:27:53.723Z,102211.23
2019-02-24T05:28:29.348Z,102215.05
2019-02-24T05:29:05.116Z,102212.16
2019-02-24T05:29:45.785Z,102206.86
2019-02-24T05:30:18.000Z,102209.55
2019-02-24T05:30:53.660Z,102212.50
2019-02-24T05:31:29.042Z,102207.79
2019-02-24T05:32:04.459Z,102215.63
2019-02-24T05:32:39.961Z,102217.02
2019-02-24T05:33:15.744Z,102217.92
2019-02-24T05:33:51.558Z,102216.97
2019-02-24T05:34:27.086Z,102217.92
2019-02-24T05:35:02.803Z,102216.03
2019-02-24T05:35:38.305Z,102214.42
2019-02-24T05:36:13.849Z,102218.73
2019-02-24T05:36:49.576Z,102223.34
2019-02-24T05:37:24.965Z,102216.03
2019-02-24T05:38:00.657Z,102223.28
2019-02-24T05:38:36.362Z,102222.47
2019-02-24T05:39:11.792Z,102226.29
2019-02-24T05:39:47.477Z,102221.54
2019-02-24T05:40:23.177Z,102222.12
2019-02-24T05:40:58.630Z,102223.59
2019-02-24T05:41:34.152Z,102227.30
2019-02-24T05:42:09.617Z,102228.52
2019-02-24T05:42:45.040Z,102222.93
2019-02-24T05:43:20.472Z,102227.36
2019-02-24T05:43:55.867Z,102233.33
2019-02-24T05:44:31.508Z,102230.78
2019-02-24T05:45:07.295Z,102231.24
2019-02-24T05:45:43.024Z,102227.83
2019-02-24T05:46:19.030Z,102224.93
2019-02-24T05:46:54.428Z,102229.02
2019-02-24T05:47:30.109Z,102233.00
2019-02-24T05:48:05.848Z,102226.89
2019-02-24T05:48:41.713Z,102233.79
2019-02-24T05:49:17.090Z,102236.39
2019-02-24T05:49:53.106Z,102229.30
2019-02-24T05:50:28.545Z,102231.73
2019-02-24T05:51:03.964Z,102230.84
2019-02-24T05:51:39.704Z,102230.44
2019-02-24T05:52:15.165Z,102233.38
2019-02-24T05:52:50.839Z,102231.53
2019-02-24T05:53:26.271Z,102232.31
2019-02-24T05:54:01.676Z,102235.88
2019-02-24T05:54:37.110Z,102231.38
2019-02-24T05:55:12.882Z,102232.98
2019-02-24T05:55:48.335Z,102240.16
2019-02-24T05:56:23.709Z,102240.84
2019-02-24T05:56:59.370Z,102234.80
2019-02-24T05:57:35.104Z,102239.75
2019-02-24T05:58:11.258Z,102239.17
2019-02-24T05:58:47.227Z,102239.49
2019-02-24T05:59:22.602Z,102238.84
2019-02-24T05:59:59.501Z,102241.80
2019-02-24T06:00:34.945Z,102237.14
2019-02-24T06:01:10.374Z,102237.95
2019-02-24T06:01:45.759Z,102237.98
2019-02-24T06:02:21.173Z,102242.67
2019-02-24T06:02:57.087Z,102238.44
2019-02-24T06:03:32.590Z,102241.25
2019-02-24T06:04:07.997Z,102244.88
2019-02-24T06:04:43.702Z,102247.27
2019-02-24T06:05:19.378Z,102238.70
2019-02-24T06:05:54.844Z,102247.36
2019-02-24T06:06:30.874Z,102242.58
2019-02-24T06:07:06.819Z,102247.90
2019-02-24T06:07:42.246Z,102238.23
2019-02-24T06:08:17.999Z,102244.78
2019-02-24T06:08:53.382Z,102242.86
2019-02-24T06:09:29.045Z,102239.77
2019-02-24T06:10:05.027Z,102242.86
2019-02-24T06:10:40.722Z,102238.64
2019-02-24T06:11:16.379Z,102240.26
2019-02-24T06:11:52.043Z,102245.47
2019-02-24T06:12:27.448Z,102248.08
2019-02-24T06:13:03.128Z,102242.64
2019-02-24T06:13:38.866Z,102241.77
2019-02-24T06:14:14.287Z,102242.05
2019-02-24T06:14:49.763Z,102238.58
2019-02-24T06:15:25.181Z,102241.71
2019-02-24T06:16:00.907Z,102238.95
2019-02-24T06:16:36.388Z,102237.09
2019-02-24T06:17:12.392Z,102240.58
2019-02-24T06:17:47.806Z,102234.95
2019-02-24T06:18:23.211Z,102237.50
2019-02-24T06:18:58.874Z,102242.59
2019-02-24T06:19:34.285Z,102244.55
2019-02-24T06:20:09.832Z,102242.92
2019-02-24T06:20:45.227Z,102249.61
2019-02-24T06:21:20.619Z,102238.49
2019-02-24T06:21:56.079Z,102247.49
2019-02-24T06:22:31.489Z,102238.70
2019-02-24T06:23:07.169Z,102246.00
2019-02-24T06:23:42.599Z,102244.53
2019-02-24T06:24:18.291Z,102248.41
2019-02-24T06:24:53.705Z,102242.65
2019-02-24T06:25:29.119Z,102246.41
2019-02-24T06:26:04.520Z,102240.91
2019-02-24T06:26:40.486Z,102245.66
2019-02-24T06:27:16.148Z,102241.89
2019-02-24T06:27:52.125Z,102240.16
2019-02-24T06:28:27.559Z,102249.42
2019-02-24T06:29:02.958Z,102244.01
2019-02-24T06:29:38.646Z,102244.95
2019-02-24T06:30:14.050Z,102245.45
2019-02-24T06:30:49.505Z,102244.84
2019-02-24T06:31:24.903Z,102246.17
2019-02-24T06:32:00.330Z,102245.62
2019-02-24T06:32:35.734Z,102245.11
2019-02-24T06:33:11.498Z,102247.66
2019-02-24T06:33:47.192Z,102248.38
2019-02-24T06:34:22.822Z,102243.53
2019-02-24T06:34:58.297Z,102250.42
2019-02-24T06:35:33.684Z,102251.05
2019-02-24T06:36:09.182Z,102249.12
2019-02-24T06:36:44.584Z,102253.73
2019-02-24T06:37:20.047Z,102252.88
2019-02-24T06:37:55.428Z,102251.02
2019-02-24T06:38:30.854Z,102255.88
2019-02-24T06:39:08.128Z,102258.84
2019-02-24T06:39:43.505Z,102255.48
2019-02-24T06:40:18.904Z,102254.20
2019-02-24T06:40:54.295Z,102256.02
2019-02-24T06:41:29.700Z,102257.41
2019-02-24T06:42:05.369Z,102260.77
2019-02-24T06:42:40.763Z,102263.73
2019-02-24T06:43:16.448Z,102259.96
2019-02-24T06:43:51.848Z,102256.34
2019-02-24T06:44:27.509Z,102264.30
2019-02-24T06:45:03.154Z,102251.97
2019-02-24T06:45:38.548Z,102265.11
2019-02-24T06:46:14.000Z,102267.13
2019-02-24T06:46:49.410Z,102264.99
2019-02-24T06:47:25.105Z,102265.92